createdAt,value
2019-06-10T00:00:21.819Z,101272.42
2019-06-10T00:02:50.776Z,101266.77
2019-06-10T00:05:21.467Z,101258.84
2019-06-10T00:07:47.853Z,101253.41
2019-06-10T00:10:16.795Z,101246.39
2019-06-10T00:12:45.735Z,101242.30
2019-06-10T00:15:14.641Z,101232.31
2019-06-10T00:17:54.794Z,101229.11
2019-06-10T00:20:12.464Z,101234.58
2019-06-10T00:22:41.386Z,101230.13
2019-06-10T00:25:12.021Z,101227.05
2019-06-10T00:27:41.891Z,101216.95
2019-06-10T00:30:09.923Z,101211.83
2019-06-10T00:32:37.170Z,101205.84
2019-06-10T00:35:07.668Z,101211.48
2019-06-10T00:37:35.045Z,101204.63
2019-06-10T00:40:05.918Z,101200.52
2019-06-10T00:42:33.003Z,101199.16
2019-06-10T00:45:04.498Z,101198.98
2019-06-10T00:47:30.907Z,101195.59
2019-06-10T00:50:03.277Z,101195.92
2019-06-10T00:52:30.743Z,101194.39
2019-06-10T00:54:57.557Z,101186.85
2019-06-10T00:57:26.437Z,101183.60
2019-06-10T00:59:55.340Z,101176.70
2019-06-10T01:02:24.234Z,101168.87
2019-06-10T01:04:53.235Z,101167.84
2019-06-10T01:07:22.138Z,101167.53
2019-06-10T01:09:51.699Z,101162.23
2019-06-10T01:12:21.123Z,101155.37
2019-06-10T01:14:48.938Z,101163.94
2019-06-10T01:17:17.875Z,101157.77
2019-06-10T01:19:46.839Z,101157.62
2019-06-10T01:22:17.194Z,101161.88
2019-06-10T01:24:44.648Z,101157.78
2019-06-10T01:27:15.083Z,101150.10
2019-06-10T01:29:42.481Z,101155.74
2019-06-10T01:32:12.254Z,101151.80
2019-06-10T01:34:41.678Z,101148.05
2019-06-10T01:37:11.351Z,101152.15
2019-06-10T01:39:38.145Z,101137.09
2019-06-10T01:42:08.207Z,101134.54
2019-06-10T01:44:35.979Z,101142.42
2019-06-10T01:47:04.870Z,101131.30
2019-06-10T01:49:33.808Z,101129.08
2019-06-10T01:52:02.732Z,101122.73
2019-06-10T01:54:31.803Z,101121.56
2019-06-10T01:57:01.503Z,101121.72
2019-06-10T01:59:31.161Z,101121.22
2019-06-10T02:02:06.733Z,101117.78
2019-06-10T02:04:35.633Z,101117.97
2019-06-10T02:07:04.565Z,101116.25
2019-06-10T02:09:33.469Z,101103.77
2019-06-10T02:12:02.456Z,101106.50
2019-06-10T02:14:31.867Z,101104.11
2019-06-10T02:17:01.231Z,101101.20
2019-06-10T02:19:31.123Z,101097.80
2019-06-10T02:21:58.069Z,101096.55
2019-06-10T02:24:26.977Z,101094.16
2019-06-10T02:26:55.881Z,101090.06
2019-06-10T02:29:24.805Z,101081.52
2019-06-10T02:31:53.729Z,101081.52
2019-06-10T02:34:27.007Z,101079.30
2019-06-10T02:36:53.684Z,101077.26
2019-06-10T02:39:28.078Z,101075.02
2019-06-10T02:41:49.360Z,101066.12
2019-06-10T02:44:21.797Z,101065.62
2019-06-10T02:46:47.209Z,101059.48
2019-06-10T02:49:30.134Z,101059.11
2019-06-10T02:51:44.972Z,101057.24
2019-06-10T02:54:16.320Z,101055.38
2019-06-10T02:56:44.247Z,101052.97
2019-06-10T02:59:13.210Z,101050.58
2019-06-10T03:01:43.918Z,101045.62
2019-06-10T03:04:13.515Z,101045.47
2019-06-10T03:06:40.206Z,101057.59
2019-06-10T03:09:07.458Z,101045.30
2019-06-10T03:11:37.461Z,101046.83
2019-06-10T03:14:05.404Z,101047.34
2019-06-10T03:16:49.008Z,101052.27
2019-06-10T03:19:36.014Z,101059.64
2019-06-10T03:21:46.828Z,101058.95
2019-06-10T03:24:16.983Z,101060.48
2019-06-10T03:26:44.677Z,101054.00
2019-06-10T03:29:13.598Z,101051.09
2019-06-10T03:31:47.825Z,101050.56
2019-06-10T03:34:14.745Z,101056.71
2019-06-10T03:36:42.790Z,101056.87
2019-06-10T03:39:09.481Z,101056.36
2019-06-10T03:41:38.461Z,101045.24
2019-06-10T03:44:07.387Z,101042.34
2019-06-10T03:46:36.304Z,101037.34
2019-06-10T03:49:05.264Z,101042.81
2019-06-10T03:51:34.201Z,101034.94
2019-06-10T03:54:03.093Z,101035.80
2019-06-10T03:56:32.354Z,101041.58
2019-06-10T03:59:02.869Z,101040.56
2019-06-10T04:01:30.139Z,101039.89
2019-06-10T04:03:58.709Z,101034.78
2019-06-10T04:06:29.216Z,101037.19
2019-06-10T04:08:56.619Z,101029.49
2019-06-10T04:11:27.042Z,101028.47
2019-06-10T04:13:54.460Z,101028.33
2019-06-10T04:16:25.383Z,101024.75
2019-06-10T04:18:53.418Z,101021.68
2019-06-10T04:21:22.749Z,101023.05
2019-06-10T04:23:52.659Z,101016.56
2019-06-10T04:26:19.757Z,101018.45
2019-06-10T04:28:48.030Z,101012.97
2019-06-10T04:31:18.145Z,101013.34
2019-06-10T04:33:45.850Z,101016.59
2019-06-10T04:36:14.753Z,101016.42
2019-06-10T04:38:43.668Z,101017.09
2019-06-10T04:41:12.840Z,101005.11
2019-06-10T04:43:43.208Z,101002.38
2019-06-10T04:46:12.471Z,101008.89
2019-06-10T04:48:39.308Z,101007.52
2019-06-10T04:51:08.517Z,100998.64
2019-06-10T04:53:40.223Z,100999.83
2019-06-10T04:56:06.516Z,100997.89
2019-06-10T04:58:35.421Z,100995.63
2019-06-10T05:01:04.417Z,100996.66
2019-06-10T05:03:33.302Z,100988.24
2019-06-10T05:06:03.319Z,101001.07
2019-06-10T05:08:33.580Z,100993.16
2019-06-10T05:11:00.126Z,100995.22
2019-06-10T05:13:29.974Z,100981.19
2019-06-10T05:15:57.970Z,100988.72
2019-06-10T05:18:27.617Z,100976.73
2019-06-10T05:20:58.596Z,100983.75
2019-06-10T05:23:26.064Z,100985.76
2019-06-10T05:25:56.167Z,100980.45
2019-06-10T05:28:24.474Z,100973.04
2019-06-10T05:30:53.192Z,100978.52
2019-06-10T05:33:22.813Z,100970.06
2019-06-10T05:35:49.332Z,100973.10
2019-06-10T05:38:18.251Z,100965.03
2019-06-10T05:40:47.141Z,100961.23
2019-06-10T05:43:16.058Z,100956.89
2019-06-10T05:45:44.981Z,100954.23
2019-06-10T05:48:16.764Z,100950.27
2019-06-10T05:50:42.884Z,100952.11
2019-06-10T05:53:13.113Z,100944.23
2019-06-10T05:55:42.768Z,100938.34
2019-06-10T05:58:09.708Z,100933.25
2019-06-10T06:00:38.593Z,100943.03
2019-06-10T06:03:07.622Z,100939.08
2019-06-10T06:05:38.038Z,100941.71
2019-06-10T06:08:08.569Z,100937.38
2019-06-10T06:10:36.012Z,100936.36
2019-06-10T06:13:03.352Z,100934.83
2019-06-10T06:15:34.483Z,100931.27
2019-06-10T06:18:09.899Z,100928.97
2019-06-10T06:20:31.273Z,100925.78
2019-06-10T06:22:58.963Z,100933.20
2019-06-10T06:25:29.880Z,100934.20
2019-06-10T06:27:56.866Z,100942.38
2019-06-10T06:30:26.145Z,100940.81
2019-06-10T06:32:54.677Z,100935.76
2019-06-10T06:35:23.582Z,100931.33
2019-06-10T06:37:54.103Z,100933.80
2019-06-10T06:40:23.100Z,100924.86
2019-06-10T06:42:52.447Z,100922.48
2019-06-10T06:45:19.247Z,100918.80
2019-06-10T06:47:48.163Z,100917.48
2019-06-10T06:50:17.065Z,100911.67
2019-06-10T06:53:14.660Z,100904.32
2019-06-10T06:55:14.874Z,100908.90
2019-06-10T06:57:43.813Z,100906.27
2019-06-10T07:00:33.857Z,100905.77
2019-06-10T07:02:43.546Z,100905.36
2019-06-10T07:05:12.545Z,100909.91
2019-06-10T07:07:41.106Z,100912.88
2019-06-10T07:10:08.574Z,100908.86
2019-06-10T07:12:38.218Z,100907.19
2019-06-10T07:15:07.387Z,100906.08
2019-06-10T07:17:37.934Z,100914.98
2019-06-10T07:20:05.625Z,100916.71
2019-06-10T07:22:36.901Z,100913.35
2019-06-10T07:25:06.455Z,100922.63
2019-06-10T07:27:35.345Z,100914.47
2019-06-10T07:30:11.290Z,100916.19
2019-06-10T07:32:30.198Z,100916.73
2019-06-10T07:35:02.915Z,100909.02
2019-06-10T07:37:32.772Z,100905.17
2019-06-10T07:39:59.478Z,100906.58
2019-06-10T07:42:28.418Z,100904.58
2019-06-10T07:44:57.335Z,100897.52
2019-06-10T07:47:26.280Z,100897.12
2019-06-10T07:49:55.222Z,100891.26
2019-06-10T07:52:24.181Z,100890.27
2019-06-10T07:54:53.173Z,100884.97
2019-06-10T07:57:22.597Z,100874.72
2019-06-10T07:59:52.235Z,100872.00
2019-06-10T08:02:19.835Z,100869.20
2019-06-10T08:04:48.736Z,100864.96
2019-06-10T08:07:17.626Z,100864.98
2019-06-10T08:09:47.441Z,100862.09
2019-06-10T08:12:15.555Z,100863.05
2019-06-10T08:14:45.800Z,100858.78
2019-06-10T08:17:13.316Z,100847.10
2019-06-10T08:19:48.685Z,100846.86
2019-06-10T08:22:13.170Z,100845.59
2019-06-10T08:24:42.381Z,100833.14
2019-06-10T08:27:09.001Z,100834.61
2019-06-10T08:29:38.627Z,100827.80
2019-06-10T08:32:06.908Z,100819.69
2019-06-10T08:34:35.986Z,100821.59
2019-06-10T08:37:04.779Z,100821.39
2019-06-10T08:39:33.714Z,100815.89
2019-06-10T08:42:03.115Z,100817.72
2019-06-10T08:44:32.785Z,100814.28
2019-06-10T08:47:00.407Z,100811.13
2019-06-10T08:49:29.322Z,100813.64
2019-06-10T08:51:58.213Z,100810.72
2019-06-10T08:54:27.135Z,100805.17
2019-06-10T08:56:56.027Z,100809.30
2019-06-10T08:59:24.935Z,100801.29
2019-06-10T09:01:56.919Z,100804.58
2019-06-10T09:04:22.882Z,100801.20
2019-06-10T09:06:53.773Z,100799.83
2019-06-10T09:09:22.580Z,100801.01
2019-06-10T09:11:51.968Z,100800.58
2019-06-10T09:14:18.508Z,100792.38
2019-06-10T09:16:49.010Z,100791.30
2019-06-10T09:19:16.286Z,100800.24
2019-06-10T09:21:49.753Z,100794.23
2019-06-10T09:24:14.129Z,100790.15
2019-06-10T09:26:45.073Z,100790.27
2019-06-10T09:29:13.350Z,100781.02
2019-06-10T09:31:45.568Z,100780.05
2019-06-10T09:34:12.575Z,100773.30
2019-06-10T09:36:40.989Z,100777.20
2019-06-10T09:39:08.028Z,100772.35
2019-06-10T09:41:41.506Z,100779.27
2019-06-10T09:44:06.053Z,100779.02
2019-06-10T09:46:34.963Z,100778.23
2019-06-10T09:49:04.666Z,100778.88
2019-06-10T09:51:34.327Z,100770.78
2019-06-10T09:54:06.535Z,100760.24
2019-06-10T09:56:33.113Z,100758.52
2019-06-10T09:59:03.108Z,100762.23
2019-06-10T10:01:32.511Z,100758.74
2019-06-10T10:04:00.340Z,100753.77
2019-06-10T10:06:27.527Z,100758.80
2019-06-10T10:08:58.276Z,100754.73
2019-06-10T10:11:28.496Z,100756.28
2019-06-10T10:13:54.355Z,100750.11
2019-06-10T10:16:23.283Z,100749.61
2019-06-10T10:19:00.312Z,100749.42
2019-06-10T10:21:22.324Z,100738.28
2019-06-10T10:24:05.859Z,100733.22
2019-06-10T10:26:19.012Z,100721.56
2019-06-10T10:28:48.787Z,100721.27
2019-06-10T10:31:17.061Z,100718.21
2019-06-10T10:33:46.747Z,100720.00
2019-06-10T10:36:14.926Z,100713.47
2019-06-10T10:38:44.732Z,100718.47
2019-06-10T10:41:13.596Z,100722.59
2019-06-10T10:43:44.884Z,100719.33
2019-06-10T10:46:13.509Z,100719.47
2019-06-10T10:48:39.635Z,100719.38
2019-06-10T10:51:08.712Z,100716.73
2019-06-10T10:53:37.649Z,100704.24
2019-06-10T10:56:06.669Z,100709.48
2019-06-10T10:58:35.584Z,100704.69
2019-06-10T11:01:04.992Z,100700.19
2019-06-10T11:03:33.829Z,100687.75
2019-06-10T11:06:02.427Z,100694.73
2019-06-10T11:08:33.182Z,100694.31
2019-06-10T11:11:03.636Z,100697.29
2019-06-10T11:13:29.153Z,100692.97
2019-06-10T11:15:58.470Z,100683.74
2019-06-10T11:18:26.984Z,100671.04
2019-06-10T11:20:55.888Z,100666.81
2019-06-10T11:23:24.817Z,100668.94
2019-06-10T11:25:57.062Z,100663.38
2019-06-10T11:28:22.916Z,100658.82
2019-06-10T11:30:56.337Z,100661.13
2019-06-10T11:33:22.777Z,100662.04
2019-06-10T11:35:49.366Z,100649.98
2019-06-10T11:38:18.310Z,100638.74
2019-06-10T11:40:47.229Z,100634.94
2019-06-10T11:43:16.149Z,100634.86
2019-06-10T11:45:48.917Z,100625.31
2019-06-10T11:48:13.981Z,100623.17
2019-06-10T11:50:42.976Z,100623.32
2019-06-10T11:53:12.828Z,100623.15
2019-06-10T11:55:42.336Z,100624.09
2019-06-10T11:58:09.665Z,100623.83
2019-06-10T12:00:38.605Z,100616.86
2019-06-10T12:03:07.569Z,100621.44
2019-06-10T12:05:36.524Z,100623.91
2019-06-10T12:08:05.462Z,100616.36
2019-06-10T12:10:34.373Z,100609.66
2019-06-10T12:13:07.124Z,100600.98
2019-06-10T12:15:59.331Z,100590.63
2019-06-10T12:18:07.987Z,100596.80
2019-06-10T12:20:30.108Z,100602.10
2019-06-10T12:23:02.092Z,100602.38
2019-06-10T12:25:35.546Z,100596.79
2019-06-10T12:28:01.241Z,100604.08
2019-06-10T12:30:25.769Z,100601.52
2019-06-10T12:32:58.735Z,100592.00
2019-06-10T12:35:23.608Z,100589.45
2019-06-10T12:37:56.198Z,100593.14
2019-06-10T12:40:21.433Z,100584.19
2019-06-10T12:42:53.122Z,100585.00
2019-06-10T12:45:19.240Z,100580.75
2019-06-10T12:47:48.137Z,100572.79
2019-06-10T12:50:17.030Z,100573.72
2019-06-10T12:52:45.934Z,100582.64
2019-06-10T12:55:14.824Z,100576.88
2019-06-10T12:57:43.747Z,100566.48
2019-06-10T13:00:20.612Z,100561.66
2019-06-10T13:02:42.760Z,100560.61
2019-06-10T13:05:12.211Z,100566.74
2019-06-10T13:07:39.480Z,100562.01
2019-06-10T13:10:08.884Z,100557.91
2019-06-10T13:12:37.679Z,100548.38
2019-06-10T13:15:08.445Z,100540.98
2019-06-10T13:17:35.720Z,100547.50
2019-06-10T13:20:06.521Z,100551.90
2019-06-10T13:22:34.075Z,100540.35
2019-06-10T13:25:02.989Z,100535.56
2019-06-10T13:27:31.994Z,100541.73
2019-06-10T13:30:01.413Z,100545.13
2019-06-10T13:32:32.331Z,100540.34
2019-06-10T13:34:58.602Z,100539.59
2019-06-10T13:37:27.519Z,100533.41
2019-06-10T13:39:57.517Z,100541.77
2019-06-10T13:42:25.340Z,100537.12
2019-06-10T13:44:54.242Z,100522.58
2019-06-10T13:47:26.034Z,100517.00
2019-06-10T13:49:53.279Z,100519.34
2019-06-10T13:52:23.166Z,100516.27
2019-06-10T13:54:49.901Z,100517.68
2019-06-10T13:57:18.819Z,100519.27
2019-06-10T13:59:47.743Z,100510.25
2019-06-10T14:02:16.714Z,100508.19
2019-06-10T14:04:45.643Z,100499.47
2019-06-10T14:07:17.497Z,100497.94
2019-06-10T14:09:43.432Z,100494.54
2019-06-10T14:12:13.447Z,100498.86
2019-06-10T14:14:42.541Z,100496.05
2019-06-10T14:17:15.885Z,100501.52
2019-06-10T14:19:39.245Z,100494.74
2019-06-10T14:22:09.933Z,100490.20
2019-06-10T14:24:37.213Z,100483.86
2019-06-10T14:27:08.729Z,100484.37
2019-06-10T14:29:35.191Z,100475.26
2019-06-10T14:32:05.689Z,100481.59
2019-06-10T14:34:33.068Z,100475.70
2019-06-10T14:37:02.037Z,100476.89
2019-06-10T14:39:32.933Z,100483.26
2019-06-10T14:41:59.762Z,100482.28
2019-06-10T14:44:28.665Z,100482.41
2019-06-10T14:46:57.555Z,100476.64
2019-06-10T14:49:26.468Z,100479.50
2019-06-10T14:51:55.374Z,100472.25
2019-06-10T14:54:24.310Z,100475.67
2019-06-10T14:56:57.123Z,100478.04
2019-06-10T14:59:22.531Z,100470.31
2019-06-10T15:01:52.118Z,100472.00
2019-06-10T15:04:22.316Z,100476.47
2019-06-10T15:06:48.816Z,100476.98
2019-06-10T15:09:17.713Z,100470.49
2019-06-10T15:11:46.630Z,100473.27
2019-06-10T15:14:16.260Z,100489.20
2019-06-10T15:16:44.431Z,100490.95
2019-06-10T15:19:19.952Z,100478.48
2019-06-10T15:21:42.897Z,100478.09
2019-06-10T15:24:11.973Z,100478.63
2019-06-10T15:26:42.196Z,100468.97
2019-06-10T15:29:09.294Z,100468.91
2019-06-10T15:31:38.343Z,100468.56
2019-06-10T15:34:08.506Z,100458.47
2019-06-10T15:36:36.111Z,100455.61
2019-06-10T15:39:06.681Z,100457.55
2019-06-10T15:41:35.541Z,100457.30
2019-06-10T15:44:04.505Z,100448.21
2019-06-10T15:46:33.413Z,100447.96
2019-06-10T15:49:02.490Z,100441.42
2019-06-10T15:51:33.132Z,100440.92
2019-06-10T15:54:02.444Z,100446.53
2019-06-10T15:56:39.875Z,100434.61
2019-06-10T15:58:57.969Z,100424.84
2019-06-10T16:01:27.534Z,100424.94
2019-06-10T16:03:55.783Z,100416.64
2019-06-10T16:06:24.689Z,100408.25
2019-06-10T16:08:53.612Z,100409.34
2019-06-10T16:11:26.733Z,100413.08
2019-06-10T16:13:53.335Z,100409.67
2019-06-10T16:16:21.045Z,100411.31
2019-06-10T16:18:49.227Z,100401.33
2019-06-10T16:21:19.118Z,100389.47
2019-06-10T16:23:47.023Z,100395.87
2019-06-10T16:26:16.265Z,100391.99
2019-06-10T16:28:44.855Z,100397.27
2019-06-10T16:31:15.274Z,100397.84
2019-06-10T16:33:49.294Z,100403.78
2019-06-10T16:36:12.256Z,100406.52
2019-06-10T16:38:42.302Z,100408.80
2019-06-10T16:41:09.540Z,100408.00
2019-06-10T16:43:38.430Z,100407.61
2019-06-10T16:46:07.583Z,100407.48
2019-06-10T16:48:36.563Z,100396.39
2019-06-10T16:51:05.634Z,100392.34
2019-06-10T16:53:35.689Z,100385.56
2019-06-10T16:56:03.594Z,100391.55
2019-06-10T16:58:33.373Z,100391.30
2019-06-10T17:01:03.495Z,100390.78
2019-06-10T17:03:31.347Z,100385.28
2019-06-10T17:05:59.257Z,100390.65
2019-06-10T17:08:28.566Z,100394.62
2019-06-10T17:10:57.039Z,100398.48
2019-06-10T17:13:27.228Z,100397.11
2019-06-10T17:15:54.893Z,100395.56
2019-06-10T17:18:26.270Z,100396.49
2019-06-10T17:20:53.508Z,100398.49
2019-06-10T17:23:26.646Z,100399.03
2019-06-10T17:25:53.455Z,100400.07
2019-06-10T17:28:24.795Z,100402.95
2019-06-10T17:30:49.851Z,100405.55
2019-06-10T17:33:20.427Z,100413.42
2019-06-10T17:35:47.673Z,100418.88
2019-06-10T17:38:16.626Z,100415.95
2019-06-10T17:40:45.551Z,100421.20
2019-06-10T17:43:14.457Z,100419.05
2019-06-10T17:45:43.373Z,100417.94
2019-06-10T17:48:12.939Z,100417.32
2019-06-10T17:50:42.868Z,100422.04
2019-06-10T17:53:12.564Z,100428.05
2019-06-10T17:55:38.958Z,100429.41
2019-06-10T17:58:08.037Z,100434.53
2019-06-10T18:00:36.973Z,100434.85
2019-06-10T18:03:05.876Z,100430.91
2019-06-10T18:05:34.804Z,100427.89
2019-06-10T18:08:03.697Z,100419.31
2019-06-10T18:10:35.687Z,100422.36
2019-06-10T18:13:13.128Z,100424.06
2019-06-10T18:15:33.306Z,100418.23
2019-06-10T18:17:59.328Z,100432.94
2019-06-10T18:20:28.832Z,100435.11
2019-06-10T18:22:57.113Z,100431.20
2019-06-10T18:25:26.611Z,100422.34
2019-06-10T18:27:54.958Z,100426.64
2019-06-10T18:30:25.095Z,100419.45
2019-06-10T18:32:52.799Z,100415.22
2019-06-10T18:35:22.389Z,100413.98
2019-06-10T18:37:52.777Z,100421.06
2019-06-10T18:40:19.573Z,100432.44
2019-06-10T18:42:48.490Z,100437.75
2019-06-10T18:45:17.425Z,100444.21
2019-06-10T18:47:46.315Z,100443.08
2019-06-10T18:50:15.228Z,100447.55
2019-06-10T18:52:44.122Z,100451.02
2019-06-10T18:55:13.044Z,100449.16
2019-06-10T18:57:42.574Z,100440.27
2019-06-10T19:00:14.328Z,100435.83
2019-06-10T19:02:39.814Z,100431.86
2019-06-10T19:05:08.859Z,100429.80
2019-06-10T19:07:38.657Z,100431.42
2019-06-10T19:10:06.899Z,100438.32
2019-06-10T19:12:37.010Z,100441.54
2019-06-10T19:15:04.951Z,100453.30
2019-06-10T19:17:36.905Z,100469.41
2019-06-10T19:20:03.999Z,100468.48
2019-06-10T19:22:34.392Z,100467.11
2019-06-10T19:25:03.491Z,100465.34
2019-06-10T19:27:30.587Z,100470.28
2019-06-10T19:29:58.474Z,100472.43
2019-06-10T19:32:27.396Z,100477.10
2019-06-10T19:34:56.284Z,100479.87
2019-06-10T19:37:25.201Z,100475.61
2019-06-10T19:39:54.311Z,100493.82
2019-06-10T19:42:23.063Z,100497.88
2019-06-10T19:44:52.372Z,100512.46
2019-06-10T19:47:23.366Z,100509.41
2019-06-10T19:49:52.115Z,100507.60
2019-06-10T19:52:18.694Z,100505.62
2019-06-10T19:54:47.605Z,100529.75
2019-06-10T19:57:16.507Z,100522.77
2019-06-10T20:00:03.518Z,100527.22
2019-06-10T20:02:14.331Z,100518.02
2019-06-10T20:04:45.533Z,100523.48
2019-06-10T20:07:12.826Z,100526.84
2019-06-10T20:09:43.525Z,100518.70
2019-06-10T20:12:12.390Z,100518.42
2019-06-10T20:14:38.936Z,100522.72
2019-06-10T20:17:07.880Z,100527.28
2019-06-10T20:19:37.834Z,100528.10
2019-06-10T20:22:05.766Z,100530.97
2019-06-10T20:24:34.658Z,100525.52
2019-06-10T20:27:03.585Z,100527.66
2019-06-10T20:29:32.913Z,100536.11
2019-06-10T20:32:01.377Z,100537.16
2019-06-10T20:34:30.306Z,100537.48
2019-06-10T20:36:59.216Z,100536.72
2019-06-10T20:39:29.515Z,100535.09
2019-06-10T20:41:57.054Z,100524.00
2019-06-10T20:44:25.986Z,100531.47
2019-06-10T20:46:54.896Z,100531.16
2019-06-10T20:49:23.799Z,100535.02
2019-06-10T20:52:06.396Z,100531.42
2019-06-10T20:54:23.206Z,100532.40
2019-06-10T20:56:53.293Z,100523.95
2019-06-10T20:59:22.532Z,100522.44
2019-06-10T21:01:49.498Z,100527.69
2019-06-10T21:04:17.472Z,100525.00
2019-06-10T21:06:47.397Z,100528.05
2019-06-10T21:09:15.354Z,100525.30
2019-06-10T21:11:47.009Z,100524.91
2019-06-10T21:14:13.160Z,100524.33
2019-06-10T21:16:42.178Z,100519.48
2019-06-10T21:19:10.970Z,100523.02
2019-06-10T21:21:40.421Z,100520.20
2019-06-10T21:24:08.826Z,100516.62
2019-06-10T21:26:37.711Z,100517.45
2019-06-10T21:29:06.705Z,100522.55
2019-06-10T21:31:35.596Z,100523.39
2019-06-10T21:34:04.528Z,100519.15
2019-06-10T21:36:33.378Z,100521.38
2019-06-10T21:39:02.882Z,100531.11
2019-06-10T21:41:31.184Z,100540.99
2019-06-10T21:44:02.790Z,100541.72
2019-06-10T21:46:29.019Z,100536.58
2019-06-10T21:48:57.906Z,100531.52
2019-06-10T21:51:26.818Z,100527.20
2019-06-10T21:53:55.827Z,100529.69
2019-06-10T21:56:24.712Z,100524.63
2019-06-10T21:58:55.390Z,100516.45
2019-06-10T22:01:22.708Z,100526.58
2019-06-10T22:04:00.207Z,100518.73
2019-06-10T22:06:22.595Z,100516.84
2019-06-10T22:08:50.052Z,100512.86
2019-06-10T22:11:18.148Z,100511.70
2019-06-10T22:13:48.087Z,100505.77
2019-06-10T22:16:15.952Z,100502.95
2019-06-10T22:18:44.869Z,100493.80
2019-06-10T22:21:14.727Z,100492.01
2019-06-10T22:23:42.721Z,100481.02
2019-06-10T22:26:13.084Z,100479.62
2019-06-10T22:28:43.103Z,100480.73
2019-06-10T22:31:19.811Z,100478.80
2019-06-10T22:33:38.428Z,100475.34
2019-06-10T22:36:07.434Z,100483.83
2019-06-10T22:38:36.372Z,100489.98
2019-06-10T22:41:05.257Z,100485.14
2019-06-10T22:43:34.156Z,100492.66
2019-06-10T22:46:03.963Z,100493.73
2019-06-10T22:48:33.309Z,100493.08
2019-06-10T22:51:00.905Z,100495.02
2019-06-10T22:53:29.828Z,100506.94
2019-06-10T22:55:59.275Z,100497.46
2019-06-10T22:58:27.666Z,100505.70
2019-06-10T23:00:57.885Z,100497.79
2019-06-10T23:03:25.538Z,100505.86
2019-06-10T23:05:54.536Z,100511.77
2019-06-10T23:08:23.448Z,100512.00
2019-06-10T23:10:53.709Z,100511.42
2019-06-10T23:13:23.125Z,100502.11
2019-06-10T23:15:53.453Z,100503.72
2019-06-10T23:18:19.089Z,100500.73
2019-06-10T23:20:49.175Z,100503.38
2019-06-10T23:23:16.935Z,100494.19
2019-06-10T23:25:45.854Z,100489.62
2019-06-10T23:28:14.796Z,100495.19
2019-06-10T23:30:43.724Z,100496.95
2019-06-10T23:33:12.756Z,100497.53
2019-06-10T23:35:42.925Z,100504.80
2019-06-10T23:38:12.902Z,100499.64
2019-06-10T23:40:39.350Z,100496.58
2019-06-10T23:43:08.291Z,100508.63
2019-06-10T23:45:37.182Z,100512.09
2019-06-10T23:48:06.144Z,100523.16
2019-06-10T23:50:35.148Z,100532.55
2019-06-10T23:53:07.521Z,100531.33
2019-06-10T23:55:32.997Z,100541.66
2019-06-10T23:58:02.465Z,100537.30
